Time;durP1;ratioP1;P1;durP2;ratioP2;P2;SDS_P1;SDS_P2;PMS_P1;PMS_P2;Temp;Humidity;BMP_temperature;BMP_pressure;BME280_temperature;BME280_humidity;BME280_pressure;Samples;Min_cycle;Max_cycle;Signal;HPM_P1;HPM_P2
2022/05/05 00:01:42;;;;;;;42.95;31.42;;;5.90;99.90;;;;;;4984936;28;20144;-74
2022/05/05 00:04:10;;;;;;;48.78;30.98;;;5.80;99.90;;;;;;4985661;28;20052;-74
2022/05/05 00:06:37;;;;;;;31.80;27.33;;;5.80;99.90;;;;;;5002942;28;20557;-74
2022/05/05 00:09:05;;;;;;;36.05;29.70;;;5.80;99.90;;;;;;4994219;28;20529;-75
2022/05/05 00:14:23;;;;;;;;;;;5.70;99.90;;;;;;5034849;28;20414;-75
2022/05/05 00:16:57;;;;;;;37.08;30.42;;;5.60;99.90;;;;;;5004590;28;19929;-75
2022/05/05 00:19:25;;;;;;;41.95;32.70;;;5.70;99.90;;;;;;5003816;28;20063;-75
2022/05/05 00:21:52;;;;;;;46.40;33.53;;;5.70;99.90;;;;;;5004473;28;20268;-74
2022/05/05 00:24:19;;;;;;;53.75;35.85;;;5.70;99.90;;;;;;5012574;28;20073;-74
2022/05/05 00:26:50;;;;;;;51.40;34.15;;;5.70;99.90;;;;;;5021426;28;20493;-74
2022/05/05 00:29:16;;;;;;;42.75;31.42;;;5.60;99.90;;;;;;5004878;28;20049;-75
2022/05/05 00:31:44;;;;;;;46.33;32.75;;;5.50;99.90;;;;;;5003076;28;20045;-75
2022/05/05 00:34:14;;;;;;;47.10;32.08;;;5.60;99.90;;;;;;5004018;28;20534;-75
2022/05/05 00:36:41;;;;;;;44.60;30.52;;;5.60;99.90;;;;;;5021753;28;20053;-75
2022/05/05 00:39:09;;;;;;;42.22;30.25;;;5.50;99.90;;;;;;5004717;28;20059;-74
2022/05/05 00:41:37;;;;;;;47.03;30.20;;;5.40;99.90;;;;;;5033094;28;20045;-76
2022/05/05 00:44:05;;;;;;;36.95;29.17;;;5.30;99.90;;;;;;5023200;28;20052;-77
2022/05/05 00:46:33;;;;;;;40.08;28.92;;;5.30;99.90;;;;;;5022531;28;20800;-76
2022/05/05 00:49:00;;;;;;;39.90;30.92;;;5.20;99.90;;;;;;5019022;28;20042;-76
2022/05/05 00:51:28;;;;;;;39.78;30.52;;;5.20;99.90;;;;;;5001826;28;20786;-76
2022/05/05 00:53:55;;;;;;;38.38;29.38;;;5.30;99.90;;;;;;4986526;28;20555;-76
2022/05/05 00:56:23;;;;;;;39.35;28.65;;;5.20;99.90;;;;;;5002864;28;20041;-76
2022/05/05 00:58:55;;;;;;;37.92;30.58;;;5.30;99.90;;;;;;5021909;28;20087;-76
2022/05/05 01:01:30;;;;;;;42.30;29.33;;;5.10;99.90;;;;;;5021667;28;20279;-76
2022/05/05 01:03:57;;;;;;;39.60;29.63;;;5.10;99.90;;;;;;5004373;28;20309;-76
2022/05/05 01:06:24;;;;;;;36.35;29.13;;;5.10;99.90;;;;;;4994530;28;20054;-76
2022/05/05 01:08:51;;;;;;;36.80;28.67;;;5.10;99.90;;;;;;5009348;28;20169;-75
2022/05/05 01:11:20;;;;;;;47.47;31.27;;;5.10;99.90;;;;;;5029527;28;20549;-76
2022/05/05 01:13:50;;;;;;;36.80;29.13;;;5.10;99.90;;;;;;5029499;28;20050;-75
2022/05/05 01:16:17;;;;;;;40.00;29.73;;;4.90;99.90;;;;;;5007844;28;20220;-75
2022/05/05 01:18:47;;;;;;;36.97;30.23;;;4.80;99.90;;;;;;4984365;28;20065;-76
2022/05/05 01:21:13;;;;;;;42.35;31.13;;;4.80;99.90;;;;;;5000794;28;20141;-76
2022/05/05 01:23:40;;;;;;;42.50;29.50;;;4.80;99.90;;;;;;5005771;28;20068;-75
2022/05/05 01:28:53;;;;;;;37.85;30.77;;;4.70;99.90;;;;;;5004611;28;20061;-76
2022/05/05 01:31:20;;;;;;;34.75;28.60;;;4.70;99.90;;;;;;5003439;28;20104;-76
2022/05/05 01:33:47;;;;;;;39.63;29.65;;;4.60;99.90;;;;;;5002933;28;20050;-75
2022/05/05 01:36:14;;;;;;;47.38;32.72;;;4.50;99.90;;;;;;5003228;28;20156;-75
2022/05/05 01:38:43;;;;;;;41.70;30.35;;;4.50;99.90;;;;;;4987530;28;20053;-76
2022/05/05 01:41:11;;;;;;;38.08;31.40;;;4.30;99.90;;;;;;5014283;28;20167;-76
2022/05/05 01:43:40;;;;;;;43.47;31.77;;;4.40;99.90;;;;;;5035573;28;20645;-76
2022/05/05 01:46:07;;;;;;;42.72;30.30;;;4.50;99.90;;;;;;5039497;28;20119;-76
2022/05/05 01:48:34;;;;;;;48.28;32.25;;;4.40;99.90;;;;;;5010729;28;20084;-76
2022/05/05 01:51:03;;;;;;;39.85;30.33;;;4.60;99.90;;;;;;5003286;28;20112;-76
2022/05/05 01:53:36;;;;;;;48.33;31.00;;;4.60;99.90;;;;;;5003288;28;20105;-76
2022/05/05 01:56:06;;;;;;;43.42;30.95;;;4.40;99.90;;;;;;5011014;28;20502;-76
2022/05/05 01:58:33;;;;;;;38.63;31.05;;;4.50;99.90;;;;;;5000738;28;20042;-76
2022/05/05 02:01:06;;;;;;;53.20;33.55;;;4.60;99.90;;;;;;4992436;28;20053;-77
2022/05/05 02:03:59;;;;;;;45.33;32.72;;;4.60;99.90;;;;;;5004199;28;20065;-76
2022/05/05 02:06:26;;;;;;;41.65;30.58;;;4.50;99.90;;;;;;4987326;28;20081;-75
2022/05/05 02:08:53;;;;;;;48.78;31.52;;;4.60;99.90;;;;;;5007710;28;20422;-76
2022/05/05 02:11:19;;;;;;;44.15;30.90;;;4.50;99.90;;;;;;5015213;28;20041;-75
2022/05/05 02:13:46;;;;;;;38.70;29.60;;;4.50;99.90;;;;;;5020851;28;20442;-77
2022/05/05 02:16:13;;;;;;;43.90;29.65;;;4.40;99.90;;;;;;5028187;28;20052;-75
2022/05/05 02:18:40;;;;;;;48.80;32.85;;;4.40;99.90;;;;;;5027948;28;20116;-75
2022/05/05 02:21:07;;;;;;;41.95;31.10;;;4.40;99.90;;;;;;5025758;28;20053;-75
2022/05/05 02:23:34;;;;;;;41.20;31.10;;;4.60;99.90;;;;;;5013879;28;20049;-74
2022/05/05 02:26:00;;;;;;;58.17;37.95;;;4.70;99.90;;;;;;5025378;28;20049;-74
2022/05/05 02:28:27;;;;;;;66.78;37.17;;;4.80;99.90;;;;;;5009402;28;20058;-77
2022/05/05 02:30:56;;;;;;;53.42;35.03;;;4.70;99.90;;;;;;5031026;28;20137;-74
2022/05/05 02:33:23;;;;;;;64.43;37.40;;;4.70;99.90;;;;;;5013493;28;20049;-76
2022/05/05 02:38:44;;;;;;;;;;;4.70;99.90;;;;;;5008036;28;20053;-76
2022/05/05 02:41:12;;;;;;;54.72;32.65;;;4.60;99.90;;;;;;5015768;28;19974;-77
2022/05/05 02:43:39;;;;;;;55.67;33.78;;;4.60;99.90;;;;;;5043097;28;20119;-75
2022/05/05 02:46:06;;;;;;;55.08;31.00;;;4.60;99.90;;;;;;5027080;28;20741;-74
2022/05/05 02:48:33;;;;;;;48.42;29.73;;;4.50;99.90;;;;;;5022512;28;20055;-74
2022/05/05 02:51:00;;;;;;;48.65;29.95;;;4.50;99.90;;;;;;5020433;28;20454;-74
2022/05/05 02:56:12;;;;;;;54.75;35.60;;;4.40;99.90;;;;;;5028925;28;20125;-74
2022/05/05 02:58:39;;;;;;;44.97;31.00;;;4.60;99.90;;;;;;5004739;28;20046;-75
2022/05/05 03:01:06;;;;;;;43.50;30.02;;;4.60;99.90;;;;;;5005649;28;20068;-75
2022/05/05 03:03:32;;;;;;;44.30;30.85;;;4.50;99.90;;;;;;4989318;28;20096;-74
2022/05/05 03:05:59;;;;;;;45.05;30.95;;;4.50;99.90;;;;;;5023519;28;20531;-74
2022/05/05 03:08:26;;;;;;;47.80;33.90;;;4.50;99.90;;;;;;5024067;28;20053;-74
2022/05/05 03:10:53;;;;;;;51.85;33.85;;;4.40;99.90;;;;;;5012488;28;20446;-74
2022/05/05 03:13:22;;;;;;;63.65;33.95;;;4.40;99.90;;;;;;5023081;28;20045;-75
2022/05/05 03:15:49;;;;;;;55.75;35.17;;;4.50;99.90;;;;;;5019213;28;20518;-75
2022/05/05 03:18:19;;;;;;;61.95;36.42;;;4.40;99.90;;;;;;4989699;28;20228;-74
2022/05/05 03:20:45;;;;;;;55.40;35.03;;;4.40;99.90;;;;;;5000895;28;20398;-76
2022/05/05 03:23:12;;;;;;;72.00;38.60;;;4.40;99.90;;;;;;5004114;28;20037;-75
2022/05/05 03:25:42;;;;;;;60.00;36.58;;;4.40;99.90;;;;;;5004326;28;20095;-76
2022/05/05 03:28:09;;;;;;;65.22;38.33;;;4.40;99.90;;;;;;5026935;28;20084;-75
2022/05/05 03:30:36;;;;;;;64.57;37.85;;;4.60;99.90;;;;;;5009807;28;20048;-76
2022/05/05 03:33:03;;;;;;;54.03;36.13;;;4.60;99.90;;;;;;5018211;28;20050;-76
2022/05/05 03:35:33;;;;;;;61.83;36.90;;;4.50;99.90;;;;;;5008121;28;20046;-77
2022/05/05 03:38:00;;;;;;;63.70;37.50;;;4.70;99.90;;;;;;5009631;28;20057;-76
2022/05/05 03:41:26;;;;;;;62.05;36.33;;;4.60;99.90;;;;;;5031672;28;20056;-78
2022/05/05 03:43:52;;;;;;;56.00;35.97;;;4.60;99.90;;;;;;5031572;28;20076;-75
2022/05/05 03:46:19;;;;;;;61.45;37.88;;;4.60;99.90;;;;;;5049701;28;20514;-78
2022/05/05 03:48:46;;;;;;;63.47;37.30;;;4.80;99.90;;;;;;5049794;28;20049;-77
2022/05/05 03:51:14;;;;;;;52.30;36.85;;;4.70;99.90;;;;;;5020811;28;20042;-77
2022/05/05 03:53:41;;;;;;;58.30;34.80;;;4.80;99.90;;;;;;5019494;28;20069;-77
2022/05/05 03:56:08;;;;;;;62.75;34.47;;;4.80;99.90;;;;;;5015707;28;20586;-76
2022/05/05 03:58:35;;;;;;;54.47;35.58;;;4.80;99.90;;;;;;5026130;28;20069;-77
2022/05/05 04:01:05;;;;;;;51.90;33.92;;;4.70;99.90;;;;;;5008045;28;20517;-77
2022/05/05 04:03:32;;;;;;;53.90;34.05;;;4.70;99.90;;;;;;5041918;28;20053;-76
2022/05/05 04:06:04;;;;;;;57.65;35.28;;;4.70;99.90;;;;;;5023140;28;20094;-76
2022/05/05 04:08:33;;;;;;;49.35;32.72;;;4.70;99.90;;;;;;5022647;28;20059;-76
2022/05/05 04:11:00;;;;;;;49.15;33.42;;;4.70;99.90;;;;;;5047240;28;20502;-77
2022/05/05 04:13:30;;;;;;;47.75;32.58;;;4.70;99.90;;;;;;5035242;28;20045;-77
2022/05/05 04:16:04;;;;;;;51.30;34.50;;;4.70;99.90;;;;;;5016224;28;20079;-76
2022/05/05 04:18:33;;;;;;;54.28;34.28;;;4.70;99.90;;;;;;5012940;28;20072;-76
2022/05/05 04:21:00;;;;;;;51.45;33.42;;;4.80;99.90;;;;;;5006105;28;20048;-76
2022/05/05 04:23:27;;;;;;;51.33;32.35;;;5.00;99.90;;;;;;5006414;28;20045;-76
2022/05/05 04:26:14;;;;;;;46.30;31.88;;;4.80;99.90;;;;;;5005755;28;20489;-77
2022/05/05 04:28:44;;;;;;;52.03;33.65;;;4.70;99.90;;;;;;5014909;28;20059;-76
2022/05/05 04:31:13;;;;;;;55.22;32.78;;;4.80;99.90;;;;;;5010912;28;20046;-77
2022/05/05 04:33:41;;;;;;;59.92;33.53;;;4.80;99.90;;;;;;5006797;28;20091;-76
2022/05/05 04:37:00;;;;;;;46.38;32.60;;;4.80;99.90;;;;;;5005377;28;20218;-76
2022/05/05 04:39:29;;;;;;;53.67;34.38;;;4.90;99.90;;;;;;4992785;28;20079;-77
2022/05/05 04:41:56;;;;;;;58.70;35.20;;;4.90;99.90;;;;;;5030473;28;20048;-76
2022/05/05 04:44:23;;;;;;;54.95;35.30;;;5.00;99.90;;;;;;5018873;28;20686;-77
2022/05/05 04:46:50;;;;;;;53.00;34.65;;;5.20;99.90;;;;;;5025096;28;20079;-77
2022/05/05 04:49:17;;;;;;;57.90;35.92;;;5.20;99.90;;;;;;5041580;28;20103;-76
2022/05/05 04:51:44;;;;;;;56.70;35.08;;;5.30;99.90;;;;;;5004916;28;20165;-76
2022/05/05 04:54:11;;;;;;;54.72;33.70;;;5.40;99.90;;;;;;5004804;28;20057;-77
2022/05/05 04:56:38;;;;;;;52.03;33.78;;;5.60;99.90;;;;;;5008171;28;20053;-76
2022/05/05 04:59:05;;;;;;;48.05;34.03;;;5.70;99.90;;;;;;5023409;28;20784;-76
2022/05/05 05:01:32;;;;;;;54.55;34.05;;;5.80;99.90;;;;;;5022225;28;20084;-76
2022/05/05 05:03:59;;;;;;;52.60;33.97;;;5.80;99.90;;;;;;5004585;28;20072;-77
2022/05/05 05:06:27;;;;;;;53.65;33.17;;;5.80;99.90;;;;;;5004582;28;20128;-77
2022/05/05 05:08:57;;;;;;;53.17;33.92;;;6.10;99.90;;;;;;4987774;28;20083;-78
2022/05/05 05:11:27;;;;;;;48.40;32.85;;;6.20;99.90;;;;;;5027929;28;20056;-77
2022/05/05 05:13:55;;;;;;;50.95;33.03;;;6.20;99.90;;;;;;5024006;28;20048;-76
2022/05/05 05:16:28;;;;;;;56.72;33.92;;;6.30;99.90;;;;;;5007661;28;20059;-76
2022/05/05 05:19:10;;;;;;;53.10;34.88;;;6.40;99.90;;;;;;5011181;28;20049;-77
2022/05/05 05:21:47;;;;;;;44.80;32.67;;;6.50;99.90;;;;;;5006394;28;20123;-76
2022/05/05 05:24:14;;;;;;;50.10;33.92;;;6.70;99.90;;;;;;5021414;28;20152;-77
2022/05/05 05:26:41;;;;;;;46.88;32.90;;;6.70;99.90;;;;;;5021691;28;20053;-77
2022/05/05 05:29:08;;;;;;;47.13;33.00;;;6.90;99.90;;;;;;5005458;28;20049;-77
2022/05/05 05:31:35;;;;;;;45.58;32.25;;;7.10;99.90;;;;;;5003889;28;20045;-77
2022/05/05 05:34:02;;;;;;;41.58;32.17;;;7.30;99.90;;;;;;4999033;28;20402;-76
2022/05/05 05:36:29;;;;;;;43.80;34.00;;;7.60;99.90;;;;;;5004193;28;20049;-78
2022/05/05 05:38:56;;;;;;;39.17;34.08;;;7.80;99.90;;;;;;4988775;28;20042;-76
2022/05/05 05:41:23;;;;;;;42.17;34.13;;;7.90;99.90;;;;;;5013753;28;20437;-77
2022/05/05 05:43:51;;;;;;;45.40;36.42;;;8.00;99.90;;;;;;5008969;28;20060;-77
2022/05/05 05:46:18;;;;;;;44.72;35.78;;;8.10;99.90;;;;;;5027693;28;20072;-77
2022/05/05 05:48:47;;;;;;;43.40;37.10;;;8.20;99.90;;;;;;5016352;28;20069;-76
2022/05/05 05:51:14;;;;;;;41.63;35.67;;;8.20;99.90;;;;;;5007776;28;20053;-78
2022/05/05 05:53:41;;;;;;;45.13;37.20;;;8.30;99.90;;;;;;5007886;28;20037;-79
2022/05/05 05:56:08;;;;;;;46.15;37.20;;;8.30;99.90;;;;;;4990806;28;20033;-77
2022/05/05 05:58:38;;;;;;;43.65;38.25;;;8.40;99.90;;;;;;4992087;28;20053;-75
2022/05/05 06:01:06;;;;;;;41.97;37.53;;;8.40;99.90;;;;;;4990814;28;20045;-75
2022/05/05 06:06:19;;;;;;;;;;;8.70;99.90;;;;;;5008136;28;20115;-76
2022/05/05 06:08:46;;;;;;;42.83;35.95;;;8.70;99.90;;;;;;4995421;28;19971;-76
2022/05/05 06:11:14;;;;;;;46.60;37.45;;;8.90;99.90;;;;;;5025617;28;20051;-77
2022/05/05 06:13:41;;;;;;;45.08;40.22;;;9.30;99.90;;;;;;4998979;28;20069;-75
2022/05/05 06:16:09;;;;;;;45.20;39.80;;;9.60;99.90;;;;;;5010571;28;20041;-76
2022/05/05 06:18:37;;;;;;;43.53;39.28;;;9.90;99.90;;;;;;5028322;28;20069;-76
2022/05/05 06:21:05;;;;;;;42.70;38.47;;;10.20;99.90;;;;;;5043691;28;20562;-76
2022/05/05 06:23:32;;;;;;;44.75;40.20;;;10.50;99.90;;;;;;5009964;28;20725;-76
2022/05/05 06:25:59;;;;;;;42.50;38.35;;;11.00;99.90;;;;;;5008010;28;20068;-77
2022/05/05 06:28:26;;;;;;;45.20;40.70;;;11.40;99.90;;;;;;5009556;28;20926;-77
2022/05/05 06:30:53;;;;;;;44.17;39.47;;;12.10;99.90;;;;;;5007850;28;20739;-77
2022/05/05 06:33:22;;;;;;;46.08;41.55;;;12.20;99.90;;;;;;5026189;28;20132;-77
2022/05/05 06:35:55;;;;;;;45.33;41.00;;;12.20;99.90;;;;;;4992346;28;20060;-77
2022/05/05 06:38:23;;;;;;;43.92;39.45;;;12.50;99.90;;;;;;4992479;28;20045;-77
2022/05/05 06:40:53;;;;;;;44.05;39.47;;;12.70;99.90;;;;;;5016554;28;20615;-76
2022/05/05 06:43:21;;;;;;;43.97;39.60;;;13.10;99.90;;;;;;5023047;28;20041;-77
2022/05/05 06:45:48;;;;;;;43.80;39.47;;;13.40;99.90;;;;;;5043298;28;20045;-77
2022/05/05 06:48:16;;;;;;;42.83;38.88;;;13.90;99.90;;;;;;5016552;28;20045;-77
2022/05/05 06:51:09;;;;;;;44.03;40.20;;;14.30;99.90;;;;;;5018448;28;20411;-74
2022/05/05 06:53:42;;;;;;;43.95;39.40;;;14.90;99.90;;;;;;5007357;28;20491;-75
2022/05/05 06:56:09;;;;;;;45.88;41.67;;;14.70;99.90;;;;;;5004702;28;20041;-77
2022/05/05 06:58:36;;;;;;;43.97;39.60;;;14.90;99.90;;;;;;5009346;28;20560;-77
2022/05/05 07:05:23;;;;;;;42.63;38.67;;;15.40;99.90;;;;;;5022746;28;20604;-76
2022/05/05 07:06:38;;;;;;;44.05;40.08;;;15.60;99.90;;;;;;5009326;28;20578;-77
2022/05/05 07:12:01;;;;;;;44.83;40.42;;;15.80;99.90;;;;;;5029930;28;20787;-76
2022/05/05 07:14:28;;;;;;;41.38;37.63;;;15.50;99.90;;;;;;5023355;28;20055;-76
2022/05/05 07:16:59;;;;;;;42.97;39.00;;;15.50;99.90;;;;;;5009658;28;20579;-75
2022/05/05 07:19:28;;;;;;;42.45;38.35;;;15.50;99.90;;;;;;5008986;28;20044;-77
2022/05/05 07:21:55;;;;;;;41.65;37.70;;;15.50;99.90;;;;;;5025634;28;20398;-75
2022/05/05 07:24:22;;;;;;;41.10;37.22;;;15.70;99.90;;;;;;5009773;28;20069;-77
2022/05/05 07:26:49;;;;;;;41.80;37.78;;;15.80;99.90;;;;;;5032129;28;20048;-77
2022/05/05 07:29:16;;;;;;;41.53;37.67;;;15.50;99.90;;;;;;5005899;28;20107;-76
2022/05/05 07:31:43;;;;;;;42.13;38.47;;;15.40;99.90;;;;;;5028744;28;20098;-75
2022/05/05 07:34:10;;;;;;;40.83;37.17;;;15.50;99.90;;;;;;5026155;28;20433;-75
2022/05/05 07:36:37;;;;;;;42.35;38.38;;;15.50;99.90;;;;;;5007563;28;20037;-76
2022/05/05 07:39:04;;;;;;;41.08;37.72;;;15.60;99.90;;;;;;5006426;28;20565;-74
2022/05/05 07:41:31;;;;;;;40.42;36.63;;;15.90;99.90;;;;;;5014666;28;20041;-77
2022/05/05 07:43:58;;;;;;;40.45;36.97;;;15.90;99.90;;;;;;5022558;28;20045;-77
2022/05/05 07:46:25;;;;;;;40.42;36.65;;;16.20;99.90;;;;;;5003298;28;20179;-76
2022/05/05 07:48:52;;;;;;;40.65;36.67;;;16.20;99.90;;;;;;5046017;28;20048;-74
2022/05/05 07:51:19;;;;;;;39.42;35.80;;;16.30;99.90;;;;;;5005930;28;20243;-74
2022/05/05 07:56:32;;;;;;;39.22;35.85;;;16.30;99.90;;;;;;5023721;28;20046;-74
2022/05/05 07:58:58;;;;;;;38.83;35.42;;;16.20;99.90;;;;;;4987357;28;20484;-76
2022/05/05 08:01:26;;;;;;;38.00;34.60;;;16.30;99.90;;;;;;4987646;28;20104;-76
2022/05/05 08:03:53;;;;;;;38.65;35.05;;;16.50;99.90;;;;;;4986625;28;20057;-75
2022/05/05 08:06:20;;;;;;;37.90;34.75;;;16.50;99.90;;;;;;4996736;28;20041;-74
2022/05/05 08:08:47;;;;;;;37.83;34.40;;;16.70;99.90;;;;;;5005259;28;20095;-73
2022/05/05 08:11:14;;;;;;;35.42;32.65;;;16.90;99.90;;;;;;5010612;28;20091;-75
2022/05/05 08:13:40;;;;;;;38.78;35.08;;;16.80;99.90;;;;;;5011432;28;20291;-75
2022/05/05 08:16:08;;;;;;;38.92;35.00;;;16.80;99.90;;;;;;5043094;28;20408;-74
2022/05/05 08:18:38;;;;;;;35.30;32.30;;;17.10;99.90;;;;;;4989833;28;20143;-75
2022/05/05 08:21:06;;;;;;;34.72;31.50;;;16.90;99.90;;;;;;4989549;28;20056;-74
2022/05/05 08:23:33;;;;;;;34.70;31.75;;;17.20;99.90;;;;;;5023639;28;20060;-75
2022/05/05 08:28:45;;;;;;;34.97;31.88;;;17.30;99.90;;;;;;5021156;28;20053;-76
2022/05/05 08:31:12;;;;;;;33.47;30.52;;;17.40;99.90;;;;;;5006071;28;20080;-76
2022/05/05 08:33:39;;;;;;;35.88;32.35;;;17.60;99.90;;;;;;5006717;28;20043;-77
2022/05/05 08:36:07;;;;;;;35.85;32.67;;;17.60;99.90;;;;;;5005697;28;20410;-75
2022/05/05 08:38:34;;;;;;;35.60;32.05;;;17.70;99.90;;;;;;4992182;28;20108;-75
2022/05/05 08:41:02;;;;;;;35.08;31.90;;;17.60;99.90;;;;;;5016409;28;20045;-75
2022/05/05 08:43:29;;;;;;;36.63;33.40;;;17.60;99.90;;;;;;5021429;28;20056;-77
2022/05/05 08:46:22;;;;;;;36.35;32.88;;;17.70;99.90;;;;;;5011561;28;20073;-75
2022/05/05 08:48:50;;;;;;;35.53;32.53;;;17.60;99.90;;;;;;5001846;28;20537;-75
2022/05/05 08:51:20;;;;;;;37.10;34.10;;;17.90;99.90;;;;;;5004140;28;20053;-75
2022/05/05 08:53:53;;;;;;;35.83;32.88;;;18.10;99.90;;;;;;5006250;28;20103;-77
2022/05/05 08:56:20;;;;;;;34.70;31.80;;;18.20;99.90;;;;;;5005157;28;20042;-77
2022/05/05 08:58:47;;;;;;;36.50;33.03;;;18.00;99.90;;;;;;5005340;28;20038;-77
2022/05/05 09:01:13;;;;;;;36.60;33.38;;;17.80;99.90;;;;;;5002438;28;20050;-77
2022/05/05 09:03:41;;;;;;;35.38;32.35;;;18.00;99.90;;;;;;5011922;28;20057;-73
2022/05/05 09:06:17;;;;;;;33.78;31.15;;;18.20;99.90;;;;;;5025797;28;20045;-76
2022/05/05 09:08:50;;;;;;;35.95;32.63;;;18.30;99.90;;;;;;5000133;28;20041;-76
2022/05/05 09:11:18;;;;;;;37.15;33.83;;;17.90;99.90;;;;;;5014457;28;20045;-77
2022/05/05 09:13:45;;;;;;;37.58;33.50;;;18.00;99.90;;;;;;5036441;28;20095;-77
2022/05/05 09:16:23;;;;;;;34.55;31.75;;;17.80;99.90;;;;;;5017439;23;20045;-69
2022/05/05 09:18:50;;;;;;;35.63;32.67;;;18.00;99.90;;;;;;4974105;28;20380;-68
2022/05/05 09:21:30;;;;;;;37.28;33.90;;;18.20;99.90;;;;;;4994679;28;20053;-67
2022/05/05 09:26:43;;;;;;;39.08;35.67;;;18.70;99.90;;;;;;4975341;28;20050;-68
2022/05/05 09:29:19;;;;;;;37.05;34.08;;;18.90;99.90;;;;;;4975400;28;20370;-68
2022/05/05 09:31:48;;;;;;;38.15;34.75;;;18.80;99.90;;;;;;4978531;28;20085;-66
2022/05/05 09:34:19;;;;;;;37.92;34.67;;;18.60;99.90;;;;;;4965454;28;20035;-68
2022/05/05 09:36:47;;;;;;;37.72;34.63;;;18.30;99.90;;;;;;4977365;28;20287;-68
2022/05/05 09:39:14;;;;;;;36.60;33.55;;;18.60;99.90;;;;;;4964603;28;20053;-67
2022/05/05 09:41:45;;;;;;;37.13;33.35;;;18.60;99.90;;;;;;4973500;28;20295;-67
2022/05/05 09:44:14;;;;;;;36.22;33.13;;;18.80;99.90;;;;;;4975538;28;20278;-67
2022/05/05 09:46:44;;;;;;;37.25;34.10;;;19.00;99.90;;;;;;4977484;28;20058;-66
2022/05/05 09:49:13;;;;;;;36.55;33.63;;;19.10;99.90;;;;;;4995625;28;20062;-65
2022/05/05 09:51:45;;;;;;;39.63;36.17;;;19.30;99.90;;;;;;4997613;28;20058;-67
2022/05/05 09:59:51;;;;;;;36.53;33.53;;;19.00;99.90;;;;;;4978429;28;20537;-66
2022/05/05 10:04:00;;;;;;;37.13;34.38;;;19.20;99.90;;;;;;4973494;28;20075;-66
2022/05/05 10:05:12;;;;;;;35.58;32.67;;;19.10;99.90;;;;;;4972975;28;20058;-68
2022/05/05 10:07:44;;;;;;;34.22;31.42;;;19.00;99.90;;;;;;4959359;28;20058;-68
2022/05/05 10:10:16;;;;;;;34.88;32.22;;;19.20;99.90;;;;;;4984924;28;20050;-67
2022/05/05 10:12:44;;;;;;;35.83;32.65;;;19.60;99.90;;;;;;4964892;28;20062;-68
2022/05/05 10:15:12;;;;;;;35.75;32.97;;;20.00;99.90;;;;;;4974911;28;20042;-67
2022/05/05 10:17:40;;;;;;;35.90;33.03;;;20.20;99.90;;;;;;4976172;28;20054;-68
2022/05/05 10:20:11;;;;;;;34.75;31.92;;;20.20;99.90;;;;;;4972687;28;20676;-69
2022/05/05 10:23:03;;;;;;;36.28;33.20;;;20.00;99.90;;;;;;4956660;28;20050;-68
2022/05/05 10:25:32;;;;;;;35.45;32.72;;;19.90;99.90;;;;;;4975030;28;20852;-69
2022/05/05 10:27:59;;;;;;;36.10;33.42;;;19.90;99.90;;;;;;4975756;28;20251;-68
2022/05/05 10:30:36;;;;;;;35.58;32.40;;;19.70;99.90;;;;;;4957194;28;20038;-67
2022/05/05 10:33:06;;;;;;;35.40;32.38;;;19.50;99.90;;;;;;4974461;28;20050;-69
2022/05/05 10:35:47;;;;;;;36.15;33.65;;;19.20;99.90;;;;;;4957509;28;20042;-68
2022/05/05 10:38:40;;;;;;;34.97;32.47;;;19.60;99.90;;;;;;4955262;28;20050;-68
2022/05/05 10:41:40;;;;;;;37.15;33.90;;;19.60;99.90;;;;;;4967577;28;20046;-69
2022/05/05 10:44:22;;;;;;;37.13;34.05;;;19.20;99.90;;;;;;4939169;28;20046;-68
2022/05/05 10:46:52;;;;;;;37.03;33.78;;;19.20;99.90;;;;;;4976013;28;20046;-68
2022/05/05 10:49:37;;;;;;;37.25;34.22;;;19.50;99.90;;;;;;4958218;28;20105;-68
2022/05/05 10:52:10;;;;;;;35.88;33.17;;;19.70;99.90;;;;;;4963846;28;20093;-68
2022/05/05 10:54:38;;;;;;;32.35;30.10;;;19.60;99.90;;;;;;4972399;28;20507;-68
2022/05/05 10:57:26;;;;;;;35.75;32.92;;;19.80;99.90;;;;;;4977567;28;20726;-68
2022/05/05 11:00:18;;;;;;;35.72;32.92;;;19.80;99.90;;;;;;4995963;28;20046;-69
2022/05/05 11:02:58;;;;;;;38.03;35.03;;;19.80;99.90;;;;;;4983898;28;20526;-68
2022/05/05 11:05:36;;;;;;;39.28;36.05;;;20.00;99.90;;;;;;4976660;28;20503;-68
2022/05/05 11:08:07;;;;;;;41.40;37.75;;;19.50;99.90;;;;;;4960018;28;20062;-68
2022/05/05 11:10:47;;;;;;;42.03;38.58;;;19.70;99.90;;;;;;4984055;28;20052;-66
2022/05/05 11:13:39;;;;;;;38.47;35.20;;;19.80;99.90;;;;;;4977635;28;20050;-69
2022/05/05 11:22:14;;;;;;;33.42;30.80;;;19.70;99.90;;;;;;4974765;28;20181;-68
2022/05/05 11:24:46;;;;;;;31.75;29.50;;;19.80;99.90;;;;;;4971927;28;20054;-68
2022/05/05 11:27:18;;;;;;;33.90;31.40;;;20.00;99.90;;;;;;4984362;28;20068;-68
2022/05/05 11:29:52;;;;;;;33.53;30.92;;;18.70;99.90;;;;;;4990495;28;20058;-67
2022/05/05 11:32:20;;;;;;;32.58;30.08;;;18.50;99.90;;;;;;4975832;28;20050;-67
2022/05/05 11:34:49;;;;;;;31.85;29.50;;;18.10;99.90;;;;;;4975564;28;20627;-68
2022/05/05 11:37:17;;;;;;;31.85;29.13;;;18.00;99.90;;;;;;4974038;28;20413;-67
2022/05/05 11:39:46;;;;;;;30.40;28.23;;;18.00;99.90;;;;;;4985290;28;20057;-67
2022/05/05 11:42:14;;;;;;;29.20;27.27;;;18.20;99.90;;;;;;4959087;28;20105;-68
2022/05/05 11:44:43;;;;;;;32.30;30.05;;;18.30;99.70;;;;;;4975648;28;20058;-68
2022/05/05 11:47:18;;;;;;;31.20;29.20;;;18.30;99.70;;;;;;4974245;28;20043;-68
2022/05/05 11:49:52;;;;;;;30.38;28.30;;;18.70;98.00;;;;;;4971393;28;20098;-67
2022/05/05 11:52:19;;;;;;;30.58;28.63;;;19.20;97.10;;;;;;4953969;28;20477;-68
2022/05/05 11:54:48;;;;;;;30.63;28.55;;;19.10;96.90;;;;;;4957525;28;20506;-67
2022/05/05 11:57:39;;;;;;;30.65;28.65;;;19.50;97.80;;;;;;4982628;28;20499;-68
2022/05/05 12:02:57;;;;;;;30.90;28.90;;;20.20;96.80;;;;;;4995927;28;20054;-67
2022/05/05 12:05:25;;;;;;;29.98;27.80;;;20.80;96.80;;;;;;4978359;28;20506;-68
2022/05/05 12:07:53;;;;;;;30.77;28.73;;;20.90;96.60;;;;;;4960059;28;20461;-67
2022/05/05 12:10:23;;;;;;;30.27;28.05;;;20.70;95.70;;;;;;4991675;28;20049;-68
2022/05/05 12:13:01;;;;;;;30.50;28.10;;;20.10;95.10;;;;;;4977853;28;20483;-68
2022/05/05 12:15:27;;;;;;;32.25;29.23;;;20.00;96.20;;;;;;4976234;28;20062;-67
2022/05/05 12:17:58;;;;;;;32.35;29.33;;;19.60;97.00;;;;;;4975414;28;20054;-68
2022/05/05 12:20:27;;;;;;;32.97;29.65;;;18.40;99.10;;;;;;4972511;28;20509;-67
2022/05/05 12:22:57;;;;;;;30.27;27.92;;;17.90;99.00;;;;;;4977109;28;20503;-67
2022/05/05 12:25:25;;;;;;;33.13;29.60;;;17.90;97.90;;;;;;4976054;28;20054;-66
2022/05/05 12:27:58;;;;;;;30.70;28.25;;;17.60;98.50;;;;;;4976581;28;20534;-68
2022/05/05 12:30:37;;;;;;;31.40;29.33;;;17.70;97.30;;;;;;4976967;28;20125;-68
2022/05/05 12:33:05;;;;;;;31.13;28.73;;;17.80;97.50;;;;;;4957021;28;20050;-68
2022/05/05 12:35:37;;;;;;;30.52;27.85;;;18.30;97.90;;;;;;4974686;28;20523;-67
2022/05/05 12:38:06;;;;;;;30.70;28.50;;;18.80;97.30;;;;;;4957555;28;20104;-67
2022/05/05 12:40:33;;;;;;;32.35;30.20;;;18.50;97.20;;;;;;4991593;28;20050;-66
2022/05/05 12:43:02;;;;;;;32.70;30.45;;;17.90;96.00;;;;;;4980724;28;20326;-67
2022/05/05 12:45:35;;;;;;;32.60;30.50;;;17.80;95.20;;;;;;4975117;28;20603;-67
2022/05/05 12:48:07;;;;;;;31.50;29.17;;;17.50;95.10;;;;;;4975159;28;20065;-67
2022/05/05 12:50:41;;;;;;;29.60;27.52;;;17.90;95.30;;;;;;4941858;28;20049;-67
2022/05/05 13:01:25;;;;;;;;;;;18.70;93.80;;;;;;4975768;28;20080;-67
2022/05/05 13:03:54;;;;;;;30.95;28.75;;;19.10;92.60;;;;;;4975023;28;19980;-67
2022/05/05 13:06:22;;;;;;;32.20;29.92;;;19.20;92.90;;;;;;4956670;28;20058;-67
2022/05/05 13:08:53;;;;;;;31.30;29.10;;;19.10;93.50;;;;;;4977063;28;20553;-68
2022/05/05 13:11:20;;;;;;;30.67;28.65;;;19.20;93.90;;;;;;4964507;28;20253;-66
2022/05/05 13:13:49;;;;;;;31.23;28.95;;;18.80;95.20;;;;;;4972806;28;20133;-67
2022/05/05 13:16:24;;;;;;;29.77;27.88;;;18.60;95.30;;;;;;4974408;28;20066;-67
2022/05/05 13:18:51;;;;;;;31.60;29.25;;;18.10;94.30;;;;;;4975441;28;20100;-67
2022/05/05 13:21:17;;;;;;;30.13;28.13;;;18.40;94.70;;;;;;4973738;28;20046;-67
2022/05/05 13:23:44;;;;;;;31.48;29.38;;;18.60;93.90;;;;;;4966886;28;20128;-67
2022/05/05 13:26:11;;;;;;;32.10;29.70;;;18.50;93.40;;;;;;4976967;28;20056;-67
2022/05/05 13:28:38;;;;;;;30.77;28.77;;;18.00;93.20;;;;;;4971059;28;20046;-67
2022/05/05 13:31:05;;;;;;;32.47;30.13;;;18.30;93.50;;;;;;4974157;28;20058;-67
2022/05/05 13:33:32;;;;;;;33.45;31.25;;;18.00;93.70;;;;;;4971648;28;20054;-68
2022/05/05 13:35:59;;;;;;;32.92;30.75;;;18.00;93.90;;;;;;4951982;28;20039;-66
2022/05/05 13:38:27;;;;;;;32.40;30.30;;;18.30;95.10;;;;;;4956030;28;20142;-67